Relevés horaires Bierset (Belgique)


Relevés horaires à Bierset - Lundi 04 Sept. 2023
Heure UTC1 Température [°C] Vent [km/h] Hum. [%] Pres.4 [hPa] Visi. [Km] Nébu. [octa] Préc.5 [mm] Cond.
2m. Res. Ros. Dir.2 Vit. Moy. Raf.3
23:00 21.5 21.5 8.7 S 3.7 7.4 14.8 44 1019.5(-0.8/3h) 20 2/8 -- --
22:00 21.7 21.7 8.9 ESE 7.4 11.1 14.8 44 1019.3(-1.4/3h) 20 2/8 -- --
21:00 22.1 22.1 8.5 ESE 9.3 11.1 27.8 42 1019.6(-1.4/3h) 20 2/8 -- --
20:00 22.4 22.4 10.4 E 9.3 11.1 27.8 47 1020.2(-1.3/3h) 20 2/8 -- --
19:00 22.7 22.7 12.9 E 11.1 11.1 14.8 54 1020.6(-1.4/3h) 20 3/8 -- --
18:00 23.7 23.7 14.2 ENE 7.4 11.1 16.7 55 1020.9(-1.5/3h) 20 6/8 0/12h
--
17:00 24.3 24.3 15.2 NE 11.1 11.1 16.7 57 1021.3(-1.4/3h) 20 6/8 -- --
16:00 24.6 24.6 15.3 NNE 9.3 9.3 13.0 56 1021.9(-1.6/3h) 20 6/8 -- --
15:00 24.8 24.8 16.7 N 7.4 7.4 11.1 61 1022.3(-1.5/3h) 20 5/8 -- --
14:00 25.0 25.0 15.7 NE 7.4 7.4 11.1 56 1022.7(-1.8/3h) 20 5/8 -- --
13:00 25.0 25.0 14.8 NNE 5.6 7.4 11.1 53 1023.5(-1.5/3h) 20 5/8 -- --
12:00 24.3 24.3 12.9 NE 7.4 7.4 18.5 49 1024(-1.2/3h) 20 5/8 0/6h
--
11:00 23.6 23.6 12.8 E 3.7 5.6 9.3 51 1024.7(-0.6/3h) 20 5/8 -- --
10:00 22.3 22.3 12.4 E 3.7 3.7 5.6 53 1025.2(-0.4/3h) 20 5/8 -- --
09:00 20.8 20.8 11.7 ESE 3.7 7.4 18.5 56 1025.4(-0.3/3h) 20 5/8 -- --
08:00 18.7 18.7 11.1 SE 5.6 5.6 9.3 61 1025.7(-0.3/3h) 20 5/8 -- --
07:00 17.0 17.0 11.9 SE 3.7 7.4 18.5 72 1026(0.0/3h) 20 5/8 -- --
06:00 13.9 13.9 11.4 SE 5.6 9.3 24.1 85 1026.2(-0.2/3h) 20 5/8 0/12h
--
05:00 13.8 13.8 11.4 ESE 5.6 7.4 11.1 85 1026.3(-0.6/3h) 20 5/8 -- --
04:00 14.2 14 11.5 SE 7.4 9.3 24.1 84 1026.2(-1.2/3h) 20 5/8 -- --
03:00 15.0 14.7 11.8 SE 9.3 9.3 11.1 81 1026.4(-1.1/3h) 20 5/8 -- --
02:00 15.0 15.0 11.7 SE 5.6 5.6 7.4 81 1026.9(-0.4/3h) 20 5/8 -- --
01:00 14.1 14.1 11.9 ENE 1.9 5.6 5.6 87 1027.4(-0.1/3h) 20 5/8 -- --
00:00 14.4 14.4 11.8 NNO 0.0 11.1 16.7 84 1027.5(0.0/3h) 20 5/8 0/6h
0/24h
--

1 Coordinated Universal Time. Actuellement il est 11:00 locale et 09:00 UTC.

2 Le vent souffle depuis la direction indiquée vers la direction oposée.

3 Les rafales max. sont disponible 40 min après l'heure du relevé.

4 Pour les stations d'altitude (plus de 600m) le géopotentiel du niveau le plus proche de la pression obligatoire est indiqué.

5 Les stations disposant d'un diffuseur peuvent indiquer "trace". Cela signifie que des précipitations ont touchés le sol mais que la quantité est inférieure à 0.1 mm.

Récapitulatif de la journée
Température [°C] Vent [km/h] Ensoleillement4 [h] Precipitations totale5 [mm] Pression [Hpa]
Min1 Max.2 Moy.3 Max. Min Max.
13.5 25.5 8.3 27.8 0 h 0 min 0 1019.3 1027.5

1 Température minimale relevée entre 18:00 UTC la veille et 18:00 UTC le jour donné.

2 Température maximale relevée entre 06:00 UTC le jour donné et 06:00 UTC le lendemain.

3 Vent moyen de la journée basé sur les relevés horaires.

4 Ensoleillement en heures relevé entre 06:00 UTC la veille et 06:00 UTC le jour donné.

5 Précipitations totales tombées entre 06:00 UTC la jour donné et 06:00 UTC le lendemain.

Graphiques horaires